Lulu Pass Weather Station

This weather station provides temperature, relative humidity (RH), wind speed, gust or max wind speed, and wind direction at 10014ft near Lulu Pass at the head of Fisher Creek. This data can be used with temperature and precipitation data from the Fisher Creek SNOTEL site.

This weather station was purchased by the Friends of the Avalanche Center.

If the data has not been updated recently you can view it directly on datagarrison.com

Elevation
10014ft
Jump to table bottom
Date Time Temperature
deg F
RH, % Wind Speed Wind Gust Wind Direction
11/30/20 01:00 19.1 25 6 13 NW - 321
11/30/20 00:00 16.5 29 4 10 W - 281
11/29/20 23:00 18.0 31 6 12 NW - 309
11/29/20 22:00 14.9 40 5 9 NW - 316
11/29/20 21:00 16.7 51 7 13 SW - 241
11/29/20 20:00 16.9 53 6 12 SW - 247
11/29/20 19:00 17.0 53 5 12 W - 274
11/29/20 18:00 17.1 51 8 15 NW - 313
11/29/20 17:00 18.1 50 9 16 NW - 323
11/29/20 16:00 20.2 49 3 10 SW - 240
11/29/20 15:00 21.9 43 4 10 SW - 215
11/29/20 14:00 19.1 54 5 10 SW - 226
11/29/20 13:00 17.3 68 2 6 NW - 299
11/29/20 12:00 14.4 72 5 10 NW - 314
11/29/20 11:00 11.7 78 9 13 N - 347
11/29/20 10:00 10.5 81 7 11 NW - 321
11/29/20 09:00 9.0 88 7 9 N - 343
11/29/20 08:00 9.3 90 7 10 NW - 333
11/29/20 07:00 8.6 92 7 9 NW - 326
11/29/20 06:00 9.1 93 10 14 NW - 336
11/29/20 05:00 8.8 93 9 13 NW - 327
11/29/20 04:00 9.1 91 10 14 NW - 336
11/29/20 03:00 9.7 91 14 17 N - 341
11/29/20 02:00 9.8 91 16 21 N - 347
11/29/20 01:00 9.9 92 16 20 N - 341
11/29/20 00:00 10.1 94 14 23 N - 348
11/28/20 23:00 11.8 87 10 15 NW - 337
11/28/20 22:00 13.3 75 10 17 N - 348
11/28/20 21:00 15.0 70 11 14 N - 358
11/28/20 20:00 14.2 76 8 13 NW - 321
11/28/20 19:00 14.4 78 10 16 NW - 330
11/28/20 18:00 14.2 77 7 13 NW - 316
11/28/20 17:00 16.3 72 7 12 NW - 321
11/28/20 16:00 17.9 69 7 13 NW - 329
11/28/20 15:00 17.8 72 10 14 NW - 336
11/28/20 14:00 18.0 67 5 11 W - 254
11/28/20 13:00 18.2 62 5 14 SW - 236
11/28/20 12:00 20.0 59 3 11 SW - 236
11/28/20 11:00 18.2 67 4 12 N - 340
11/28/20 10:00 18.5 60 4 12 NE - 38
11/28/20 09:00 19.0 56 8 20 SW - 213
11/28/20 08:00 18.5 62 5 11 SW - 244
11/28/20 07:00 17.9 66 5 10 N - 340
11/28/20 06:00 19.9 57 4 12 W - 264
11/28/20 05:00 18.8 69 7 13 SW - 227
11/28/20 04:00 17.3 95 5 11 SW - 239
11/28/20 03:00 16.1 95 3 12 NW - 324
11/28/20 02:00 16.1 95 4 11 W - 251
11/28/20 01:00 13.6 94 5 8 NW - 330
11/28/20 00:00 13.8 94 4 9 NW - 330